Time;durP1;ratioP1;P1;durP2;ratioP2;P2;SDS_P1;SDS_P2;PMS_P1;PMS_P2;Temp;Humidity;BMP_temperature;BMP_pressure;BME280_temperature;BME280_humidity;BME280_pressure;Samples;Min_cycle;Max_cycle;Signal;HPM_P1;HPM_P2
2021/04/27 00:00:07;;;;;;;;;;;;;;;1.39;68.77;101633.69;5038568;28;1252;-78
2021/04/27 00:02:32;;;;;;;;;;;;;;;1.36;68.49;101634.22;5039911;28;1258;-78
2021/04/27 00:04:58;;;;;;;;;;;;;;;1.36;68.41;101629.56;5038799;28;1961;-79
2021/04/27 00:07:23;;;;;;;;;;;;;;;1.34;68.24;101631.75;5039436;28;1840;-78
2021/04/27 00:09:49;;;;;;;;;;;;;;;1.29;68.46;101626.25;5039162;28;1881;-79
2021/04/27 00:12:14;;;;;;;;;;;;;;;1.26;68.39;101622.19;5038490;28;1408;-80
2021/04/27 00:14:39;;;;;;;;;;;;;;;1.19;68.08;101621.56;5040349;28;868;-80
2021/04/27 00:17:06;;;;;;;;;;;;;;;1.16;67.99;101626.72;5039559;28;829;-78
2021/04/27 00:19:32;;;;;;;;;;;;;;;1.09;68.08;101618.75;5038816;28;1189;-79
2021/04/27 00:21:57;;;;;;;;;;;;;;;1.10;68.28;101623.94;5038868;28;1852;-79
2021/04/27 00:24:22;;;;;;;;;;;;;;;1.06;67.63;101614.69;5037594;28;1915;-79
2021/04/27 00:26:48;;;;;;;;;;;;;;;1.05;67.99;101614.94;5039170;28;1012;-78
2021/04/27 00:29:13;;;;;;;;;;;;;;;1.01;67.80;101622.00;5039783;28;1189;-79
2021/04/27 00:31:39;;;;;;;;;;;;;;;0.90;67.58;101607.47;5038864;28;894;-78
2021/04/27 00:34:04;;;;;;;;;;;;;;;0.97;67.21;101610.81;5038097;28;828;-78
2021/04/27 00:36:29;;;;;;;;;;;;;;;0.96;67.20;101608.34;5039281;28;1042;-79
2021/04/27 00:38:55;;;;;;;;;;;;;;;0.91;67.55;101609.13;5037900;28;1891;-79
2021/04/27 00:41:21;;;;;;;;;;;;;;;0.85;67.00;101607.44;5038446;28;864;-79
2021/04/27 00:43:46;;;;;;;;;;;;;;;0.80;67.53;101600.06;5038264;28;1007;-78
2021/04/27 00:46:12;;;;;;;;;;;;;;;0.78;66.99;101607.66;5037927;28;1965;-78
2021/04/27 00:48:37;;;;;;;;;;;;;;;0.73;66.88;101602.19;5039218;28;1240;-78
2021/04/27 00:51:03;;;;;;;;;;;;;;;0.70;67.12;101608.94;5039417;28;1015;-79
2021/04/27 00:53:30;;;;;;;;;;;;;;;0.68;66.83;101602.97;5039447;28;2022;-78
2021/04/27 00:55:55;;;;;;;;;;;;;;;0.69;66.67;101604.59;5039536;28;809;-79
2021/04/27 00:58:21;;;;;;;;;;;;;;;0.70;66.24;101597.25;5054674;28;1267;-78
2021/04/27 01:00:49;;;;;;;;;;;;;;;0.69;65.98;101603.78;5042655;28;1086;-79
2021/04/27 01:03:15;;;;;;;;;;;;;;;0.67;66.25;101605.94;5042333;28;868;-78
2021/04/27 01:05:41;;;;;;;;;;;;;;;0.65;65.81;101600.75;5041761;28;1874;-78
2021/04/27 01:08:16;;;;;;;;;;;;;;;0.66;65.53;101602.41;5040755;28;1828;-79
2021/04/27 01:11:03;;;;;;;;;;;;;;;0.68;65.25;101602.97;5041864;28;863;-78
2021/04/27 01:13:42;;;;;;;;;;;;;;;0.66;65.76;101599.69;5043417;28;809;-78
2021/04/27 01:16:09;;;;;;;;;;;;;;;0.61;65.24;101602.34;5043106;28;1011;-79
2021/04/27 01:18:36;;;;;;;;;;;;;;;0.58;65.16;101597.44;5043946;28;1189;-79
2021/04/27 01:21:03;;;;;;;;;;;;;;;0.51;65.92;101594.09;5043429;28;1888;-78
2021/04/27 01:23:36;;;;;;;;;;;;;;;0.42;65.85;101595.66;5041664;28;1835;-79
2021/04/27 01:26:28;;;;;;;;;;;;;;;0.38;66.03;101587.16;5041677;28;1886;-79
2021/04/27 01:28:55;;;;;;;;;;;;;;;0.36;65.39;101595.59;5042127;28;1240;-80
2021/04/27 01:31:20;;;;;;;;;;;;;;;0.33;65.33;101593.41;5041929;28;1007;-79
2021/04/27 01:33:46;;;;;;;;;;;;;;;0.32;65.71;101591.75;5041221;28;2022;-80
2021/04/27 01:36:12;;;;;;;;;;;;;;;0.33;65.06;101587.97;5042217;28;944;-79
2021/04/27 01:38:37;;;;;;;;;;;;;;;0.39;64.98;101580.69;5040810;28;1836;-79
2021/04/27 01:41:04;;;;;;;;;;;;;;;0.40;65.02;101589.63;5041756;28;995;-79
2021/04/27 01:43:30;;;;;;;;;;;;;;;0.50;63.87;101587.84;5041209;28;944;-79
2021/04/27 01:45:59;;;;;;;;;;;;;;;0.49;63.99;101580.78;5041020;28;1890;-79
2021/04/27 01:48:24;;;;;;;;;;;;;;;0.46;63.86;101584.00;5040434;28;1962;-79
2021/04/27 01:50:53;;;;;;;;;;;;;;;0.45;63.99;101586.97;5039564;28;1275;-79
2021/04/27 01:53:19;;;;;;;;;;;;;;;0.49;64.24;101585.41;5040422;28;2067;-79
2021/04/27 01:55:44;;;;;;;;;;;;;;;0.52;63.55;101576.69;5055740;28;941;-78
2021/04/27 01:58:10;;;;;;;;;;;;;;;0.44;64.13;101579.91;5039959;28;1288;-79
2021/04/27 02:00:35;;;;;;;;;;;;;;;0.35;64.26;101579.56;5040621;28;1848;-79
2021/04/27 02:03:01;;;;;;;;;;;;;;;0.34;64.27;101576.00;5041708;28;948;-79
2021/04/27 02:05:26;;;;;;;;;;;;;;;0.35;64.45;101572.22;5041517;28;1886;-79
2021/04/27 02:07:52;;;;;;;;;;;;;;;0.33;64.48;101576.28;5040774;28;1888;-79
2021/04/27 02:10:17;;;;;;;;;;;;;;;0.29;64.88;101575.94;5039960;28;959;-78
2021/04/27 02:12:46;;;;;;;;;;;;;;;0.26;64.84;101575.66;5039960;28;991;-79
2021/04/27 02:15:15;;;;;;;;;;;;;;;0.29;63.99;101573.22;5039591;28;2117;-78
2021/04/27 02:17:53;;;;;;;;;;;;;;;0.29;64.32;101572.44;5040011;28;1011;-78
2021/04/27 02:20:24;;;;;;;;;;;;;;;0.21;64.54;101565.56;5040734;28;995;-79
2021/04/27 02:22:49;;;;;;;;;;;;;;;0.19;64.83;101573.13;5040237;28;1892;-78
2021/04/27 02:25:16;;;;;;;;;;;;;;;0.15;64.69;101567.38;5040827;28;1879;-78
2021/04/27 02:27:43;;;;;;;;;;;;;;;0.10;64.98;101561.91;5041148;28;1000;-78
2021/04/27 02:30:11;;;;;;;;;;;;;;;0.04;64.82;101568.38;5040146;28;1288;-79
2021/04/27 02:32:39;;;;;;;;;;;;;;;-0.01;65.52;101562.88;5041216;28;1884;-79
2021/04/27 02:35:08;;;;;;;;;;;;;;;-0.05;66.12;101562.56;5040815;28;1333;-79
2021/04/27 02:37:33;;;;;;;;;;;;;;;-0.06;66.03;101565.53;5039700;28;1954;-78
2021/04/27 02:39:58;;;;;;;;;;;;;;;-0.07;65.97;101558.47;5040487;28;1205;-78
2021/04/27 02:42:25;;;;;;;;;;;;;;;-0.08;65.62;101565.78;5040087;28;793;-78
2021/04/27 02:44:51;;;;;;;;;;;;;;;-0.10;65.80;101562.53;5039743;28;1902;-78
2021/04/27 02:47:16;;;;;;;;;;;;;;;-0.09;66.11;101558.72;5039251;28;789;-79
2021/04/27 02:49:41;;;;;;;;;;;;;;;-0.15;66.03;101565.19;5039367;28;1174;-80
2021/04/27 02:52:07;;;;;;;;;;;;;;;-0.18;66.44;101559.44;5039826;28;1875;-79
2021/04/27 02:54:32;;;;;;;;;;;;;;;-0.18;66.60;101562.97;5022671;28;1942;-79
2021/04/27 02:56:57;;;;;;;;;;;;;;;-0.23;65.83;101557.47;5020462;28;866;-79
2021/04/27 02:59:23;;;;;;;;;;;;;;;-0.25;65.83;101554.19;5019890;28;1197;-79
2021/04/27 03:01:48;;;;;;;;;;;;;;;-0.31;66.58;101556.03;5020662;28;904;-79
2021/04/27 03:04:13;;;;;;;;;;;;;;;-0.35;66.57;101560.31;5020322;28;1880;-79
2021/04/27 03:06:39;;;;;;;;;;;;;;;-0.43;67.13;101549.94;5040369;28;1890;-80
2021/04/27 03:09:04;;;;;;;;;;;;;;;-0.44;67.18;101545.56;5039673;28;1943;-79
2021/04/27 03:11:30;;;;;;;;;;;;;;;-0.44;67.36;101542.84;5040477;28;871;-78
2021/04/27 03:13:56;;;;;;;;;;;;;;;-0.44;67.51;101550.97;5040450;28;1043;-79
2021/04/27 03:16:22;;;;;;;;;;;;;;;-0.47;66.99;101546.88;5040489;28;797;-78
2021/04/27 03:18:48;;;;;;;;;;;;;;;-0.50;67.39;101543.84;5039607;28;1887;-79
2021/04/27 03:21:13;;;;;;;;;;;;;;;-0.52;67.12;101546.00;5040024;28;823;-79
2021/04/27 03:23:39;;;;;;;;;;;;;;;-0.52;67.06;101548.69;5040217;28;1848;-78
2021/04/27 03:26:04;;;;;;;;;;;;;;;-0.54;67.76;101550.84;5038959;28;1960;-79
2021/04/27 03:28:29;;;;;;;;;;;;;;;-0.60;67.55;101537.22;5040283;28;1205;-79
2021/04/27 03:30:55;;;;;;;;;;;;;;;-0.61;67.53;101543.72;5040061;28;995;-78
2021/04/27 03:33:20;;;;;;;;;;;;;;;-0.57;67.46;101544.06;5040048;28;1951;-80
2021/04/27 03:35:45;;;;;;;;;;;;;;;-0.58;67.36;101535.06;5040302;28;1007;-78
2021/04/27 03:38:12;;;;;;;;;;;;;;;-0.58;68.09;101537.78;5039501;28;1824;-79
2021/04/27 03:40:39;;;;;;;;;;;;;;;-0.55;67.39;101538.34;5040041;28;804;-79
2021/04/27 03:43:05;;;;;;;;;;;;;;;-0.57;67.47;101534.00;5038217;28;1058;-79
2021/04/27 03:45:37;;;;;;;;;;;;;;;-0.57;67.64;101536.72;5039137;28;1961;-80
2021/04/27 03:48:15;;;;;;;;;;;;;;;-0.55;67.14;101528.34;5038244;28;1943;-78
2021/04/27 03:50:41;;;;;;;;;;;;;;;-0.50;67.87;101530.28;5039884;28;944;-79
2021/04/27 03:53:08;;;;;;;;;;;;;;;-0.53;67.16;101528.91;5038693;28;1868;-79
2021/04/27 03:55:33;;;;;;;;;;;;;;;-0.54;67.40;101523.72;5039552;28;983;-78
2021/04/27 03:57:59;;;;;;;;;;;;;;;-0.53;67.33;101526.19;5037532;28;1173;-79
2021/04/27 04:00:25;;;;;;;;;;;;;;;-0.49;67.52;101523.78;5039642;28;1852;-79
2021/04/27 04:02:50;;;;;;;;;;;;;;;-0.47;67.50;101519.72;5039181;28;1915;-78
2021/04/27 04:05:16;;;;;;;;;;;;;;;-0.47;67.59;101525.16;5039826;28;1867;-78
2021/04/27 04:07:41;;;;;;;;;;;;;;;-0.47;67.07;101522.44;5037901;28;1988;-78
2021/04/27 04:10:10;;;;;;;;;;;;;;;-0.46;67.49;101526.00;5038977;28;1237;-81
2021/04/27 04:12:37;;;;;;;;;;;;;;;-0.47;67.77;101540.63;5038728;28;1080;-79
2021/04/27 04:15:04;;;;;;;;;;;;;;;-0.47;67.30;101533.28;5039296;28;889;-78
2021/04/27 04:17:29;;;;;;;;;;;;;;;-0.37;67.13;101538.03;5038260;28;2078;-80
2021/04/27 04:19:55;;;;;;;;;;;;;;;-0.30;67.36;101537.84;5038946;28;1170;-79
2021/04/27 04:22:20;;;;;;;;;;;;;;;-0.32;67.08;101532.69;5039443;28;1800;-78
2021/04/27 04:24:46;;;;;;;;;;;;;;;-0.31;67.43;101547.91;5038941;28;1965;-78
2021/04/27 04:27:11;;;;;;;;;;;;;;;-0.26;67.20;101545.25;5039384;28;865;-79
2021/04/27 04:29:37;;;;;;;;;;;;;;;-0.23;66.83;101539.28;5038392;28;1173;-78
2021/04/27 04:32:02;;;;;;;;;;;;;;;-0.16;66.54;101543.72;5039197;28;849;-78
2021/04/27 04:34:27;;;;;;;;;;;;;;;-0.12;66.72;101550.25;5040767;28;917;-78
2021/04/27 04:36:53;;;;;;;;;;;;;;;-0.05;66.43;101553.63;5041697;28;1899;-79
2021/04/27 04:39:18;;;;;;;;;;;;;;;-0.04;66.52;101553.34;5042498;28;1887;-79
2021/04/27 04:41:43;;;;;;;;;;;;;;;-0.01;66.59;101563.69;5041548;28;2828;-78
2021/04/27 04:44:09;;;;;;;;;;;;;;;0.02;66.25;101553.41;5042617;28;987;-79
2021/04/27 04:46:35;;;;;;;;;;;;;;;0.09;66.48;101559.47;5043069;28;1902;-80
2021/04/27 04:49:00;;;;;;;;;;;;;;;0.11;65.78;101560.84;5043070;28;1201;-79
2021/04/27 04:51:25;;;;;;;;;;;;;;;0.10;65.94;101561.91;5059906;28;1911;-78
2021/04/27 04:53:51;;;;;;;;;;;;;;;0.09;65.88;101560.28;5040306;28;1840;-78
2021/04/27 04:56:17;;;;;;;;;;;;;;;0.09;65.62;101559.47;5039703;28;1007;-80
2021/04/27 04:58:42;;;;;;;;;;;;;;;0.09;66.05;101556.75;5039929;28;1967;-78
2021/04/27 05:01:07;;;;;;;;;;;;;;;0.14;66.14;101563.06;5039613;28;2552;-79
2021/04/27 05:03:33;;;;;;;;;;;;;;;0.17;65.03;101559.00;5040289;28;1784;-78
2021/04/27 05:05:58;;;;;;;;;;;;;;;0.23;65.27;101568.03;5040641;28;1961;-78
2021/04/27 05:08:27;;;;;;;;;;;;;;;0.26;64.72;101562.06;5040467;28;1824;-78
2021/04/27 05:10:52;;;;;;;;;;;;;;;0.31;65.33;101572.97;5042367;28;842;-78
2021/04/27 05:13:17;;;;;;;;;;;;;;;0.33;64.77;101568.94;5042183;28;947;-78
2021/04/27 05:15:43;;;;;;;;;;;;;;;0.44;64.41;101571.75;5040932;28;2081;-78
2021/04/27 05:18:09;;;;;;;;;;;;;;;0.54;64.87;101572.66;5040701;28;1256;-78
2021/04/27 05:20:35;;;;;;;;;;;;;;;0.71;64.58;101574.41;5042148;28;821;-78
2021/04/27 05:23:01;;;;;;;;;;;;;;;0.91;63.66;101576.50;5044020;28;2024;-78
2021/04/27 05:25:28;;;;;;;;;;;;;;;1.11;63.12;101579.34;5043502;28;1890;-77
2021/04/27 05:27:53;;;;;;;;;;;;;;;1.27;62.56;101572.09;5044920;28;1189;-78
2021/04/27 05:30:19;;;;;;;;;;;;;;;1.44;62.45;101577.38;5045223;28;1876;-78
2021/04/27 05:32:45;;;;;;;;;;;;;;;1.60;61.33;101574.72;5044894;28;1046;-78
2021/04/27 05:35:11;;;;;;;;;;;;;;;1.79;61.40;101580.53;5045542;28;857;-78
2021/04/27 05:37:37;;;;;;;;;;;;;;;2.04;60.56;101575.16;5046052;28;2011;-79
2021/04/27 05:40:04;;;;;;;;;;;;;;;2.32;59.33;101580.38;5045874;28;1229;-78
2021/04/27 05:42:30;;;;;;;;;;;;;;;2.37;57.66;101578.50;5039521;28;2733;-79
2021/04/27 05:44:55;;;;;;;;;;;;;;;2.42;57.35;101572.22;5028264;28;2495;-77
2021/04/27 05:47:21;;;;;;;;;;;;;;;2.55;56.73;101568.97;5026018;28;1726;-77
2021/04/27 05:49:47;;;;;;;;;;;;;;;2.60;56.82;101577.16;5029783;28;1393;-77
2021/04/27 05:52:12;;;;;;;;;;;;;;;2.76;55.79;101574.44;5032384;28;1475;-77
2021/04/27 05:54:37;;;;;;;;;;;;;;;3.11;54.87;101570.84;5036723;28;2008;-77
2021/04/27 05:57:03;;;;;;;;;;;;;;;3.87;52.60;101573.63;5037605;28;945;-77
2021/04/27 05:59:28;;;;;;;;;;;;;;;4.77;52.49;101567.00;5035535;28;1253;-77
2021/04/27 06:01:54;;;;;;;;;;;;;;;5.72;48.35;101570.13;5022437;28;1379;-80
2021/04/27 06:04:19;;;;;;;;;;;;;;;6.65;45.63;101577.09;5017459;28;833;-78
2021/04/27 06:06:44;;;;;;;;;;;;;;;7.11;44.98;101571.63;5022789;28;1902;-77
2021/04/27 06:09:10;;;;;;;;;;;;;;;7.23;45.73;101565.66;5029262;28;2051;-77
2021/04/27 06:11:37;;;;;;;;;;;;;;;6.92;44.82;101573.59;5037268;28;1937;-78
2021/04/27 06:14:04;;;;;;;;;;;;;;;6.92;44.96;101568.94;5037726;28;2062;-79
2021/04/27 06:16:29;;;;;;;;;;;;;;;7.68;44.90;101568.63;5032021;28;1221;-78
2021/04/27 06:18:55;;;;;;;;;;;;;;;8.32;42.95;101555.94;5036035;28;1863;-81
2021/04/27 06:21:21;;;;;;;;;;;;;;;8.37;40.97;101564.09;5036530;28;1962;-77
2021/04/27 06:23:46;;;;;;;;;;;;;;;8.82;40.85;101556.69;5034512;28;1968;-78
2021/04/27 06:26:12;;;;;;;;;;;;;;;9.38;40.22;101562.66;5048956;28;1966;-78
2021/04/27 06:28:37;;;;;;;;;;;;;;;9.86;38.07;101558.25;5017417;28;1182;-77
2021/04/27 06:31:02;;;;;;;;;;;;;;;10.20;37.72;101555.88;5016926;28;1038;-78
2021/04/27 06:33:28;;;;;;;;;;;;;;;10.43;37.46;101553.78;5018266;28;1868;-77
2021/04/27 06:35:53;;;;;;;;;;;;;;;10.73;35.50;101560.25;5036620;28;2149;-77
2021/04/27 06:38:19;;;;;;;;;;;;;;;10.65;35.74;101564.66;5027950;28;1909;-77
2021/04/27 06:40:47;;;;;;;;;;;;;;;10.95;36.56;101550.13;5037343;28;837;-78
2021/04/27 06:43:13;;;;;;;;;;;;;;;12.11;35.07;101548.13;5036140;28;1405;-78
2021/04/27 06:45:38;;;;;;;;;;;;;;;11.95;32.72;101548.72;5036801;28;1961;-80
2021/04/27 06:48:06;;;;;;;;;;;;;;;12.48;33.12;101551.09;5037413;28;1292;-78
2021/04/27 06:50:32;;;;;;;;;;;;;;;13.92;31.56;101543.69;5037092;28;1844;-78
2021/04/27 06:52:58;;;;;;;;;;;;;;;14.63;29.44;101544.19;5037185;28;1879;-78
2021/04/27 06:55:23;;;;;;;;;;;;;;;14.60;28.14;101532.97;5037190;28;825;-79
2021/04/27 06:57:48;;;;;;;;;;;;;;;14.55;27.40;101533.19;5036451;28;1295;-78
2021/04/27 07:00:15;;;;;;;;;;;;;;;15.80;27.19;101532.84;5036106;28;1824;-78
2021/04/27 07:02:40;;;;;;;;;;;;;;;16.45;24.58;101525.88;5036893;28;999;-78
2021/04/27 07:05:06;;;;;;;;;;;;;;;16.64;24.66;101523.06;5036783;28;1910;-78
2021/04/27 07:07:32;;;;;;;;;;;;;;;17.12;24.27;101524.75;5035638;28;1885;-78
2021/04/27 07:09:57;;;;;;;;;;;;;;;18.64;21.94;101523.72;5037354;28;2317;-78
2021/04/27 07:12:22;;;;;;;;;;;;;;;18.65;21.63;101518.94;5037115;28;904;-77
2021/04/27 07:14:49;;;;;;;;;;;;;;;18.87;21.74;101515.19;5036067;28;967;-78
2021/04/27 07:17:14;;;;;;;;;;;;;;;17.73;21.23;101508.97;5036076;28;1026;-78
2021/04/27 07:19:39;;;;;;;;;;;;;;;16.90;22.29;101519.63;5036779;28;1341;-78
2021/04/27 07:22:05;;;;;;;;;;;;;;;16.54;22.67;101520.88;5037015;28;1972;-78
2021/04/27 07:24:31;;;;;;;;;;;;;;;17.34;22.90;101500.78;5036961;28;1851;-79
2021/04/27 07:26:56;;;;;;;;;;;;;;;17.51;21.65;101502.25;5037185;28;1894;-78
2021/04/27 07:29:22;;;;;;;;;;;;;;;17.06;22.00;101510.28;5030403;28;1803;-79
2021/04/27 07:31:48;;;;;;;;;;;;;;;17.64;21.53;101501.66;5039964;28;818;-78
2021/04/27 07:34:14;;;;;;;;;;;;;;;18.80;20.90;101504.69;5025671;28;2015;-78
2021/04/27 07:36:40;;;;;;;;;;;;;;;18.63;20.38;101499.72;5037641;28;1937;-77
2021/04/27 07:39:07;;;;;;;;;;;;;;;19.28;20.30;101489.16;5037235;28;1295;-78
2021/04/27 07:41:33;;;;;;;;;;;;;;;18.19;19.89;101495.66;5035911;28;1127;-78
2021/04/27 07:43:58;;;;;;;;;;;;;;;18.83;20.35;101491.19;5036026;28;1438;-78
2021/04/27 07:46:24;;;;;;;;;;;;;;;18.70;19.28;101499.78;5016872;28;2107;-78
2021/04/27 07:48:50;;;;;;;;;;;;;;;19.40;18.82;101502.06;5027599;28;1767;-77
2021/04/27 07:51:16;;;;;;;;;;;;;;;18.33;19.24;101497.00;5035572;28;1867;-78
2021/04/27 07:53:42;;;;;;;;;;;;;;;18.28;19.69;101489.75;5035850;28;2107;-79
2021/04/27 07:56:07;;;;;;;;;;;;;;;17.26;20.23;101497.88;5036716;28;2054;-79
2021/04/27 07:58:33;;;;;;;;;;;;;;;16.22;20.93;101495.97;5034739;28;1843;-77
2021/04/27 08:00:58;;;;;;;;;;;;;;;16.39;21.12;101499.50;5035644;28;2212;-78
2021/04/27 08:03:24;;;;;;;;;;;;;;;16.79;20.31;101495.47;5035936;28;866;-77
2021/04/27 08:05:49;;;;;;;;;;;;;;;16.75;19.74;101484.25;5035537;28;1957;-78
2021/04/27 08:08:14;;;;;;;;;;;;;;;16.78;19.35;101489.06;5037980;28;1807;-79
2021/04/27 08:10:41;;;;;;;;;;;;;;;17.31;19.67;101488.41;5039301;28;1733;-77
2021/04/27 08:13:06;;;;;;;;;;;;;;;18.52;18.36;101479.25;5039509;28;833;-79
2021/04/27 08:15:32;;;;;;;;;;;;;;;17.07;19.16;101482.03;5039858;28;1511;-79
2021/04/27 08:18:00;;;;;;;;;;;;;;;17.90;18.59;101482.50;5038960;28;1891;-78
2021/04/27 08:20:26;;;;;;;;;;;;;;;17.48;19.05;101493.44;5040554;28;877;-79
2021/04/27 08:22:51;;;;;;;;;;;;;;;16.79;19.58;101484.31;5040481;28;1096;-78
2021/04/27 08:25:18;;;;;;;;;;;;;;;17.37;19.31;101484.13;5040840;28;1929;-79
2021/04/27 08:27:45;;;;;;;;;;;;;;;17.42;18.96;101481.00;5042815;28;891;-78
2021/04/27 08:30:11;;;;;;;;;;;;;;;18.77;17.87;101477.53;5044278;28;817;-79
2021/04/27 08:32:37;;;;;;;;;;;;;;;17.95;17.51;101479.38;5043630;28;1864;-80
2021/04/27 08:35:03;;;;;;;;;;;;;;;17.36;18.88;101476.91;5042351;28;1967;-79
2021/04/27 08:37:29;;;;;;;;;;;;;;;18.40;18.01;101474.72;5039319;28;1820;-78
2021/04/27 08:39:55;;;;;;;;;;;;;;;18.34;16.66;101482.66;5040132;28;1911;-79
2021/04/27 08:42:21;;;;;;;;;;;;;;;17.50;17.98;101472.75;5043686;28;1679;-77
2021/04/27 08:44:46;;;;;;;;;;;;;;;17.46;17.20;101483.84;5047341;28;1902;-80
2021/04/27 08:47:11;;;;;;;;;;;;;;;17.00;17.40;101473.53;5047147;28;1039;-80
2021/04/27 08:49:38;;;;;;;;;;;;;;;16.69;17.63;101477.34;5042068;28;1264;-81
2021/04/27 08:52:04;;;;;;;;;;;;;;;17.62;17.56;101478.91;5045667;28;1827;-80
2021/04/27 08:54:30;;;;;;;;;;;;;;;16.58;18.05;101470.78;5045494;28;1854;-78
2021/04/27 08:56:55;;;;;;;;;;;;;;;18.12;17.17;101464.81;5038874;28;962;-77
2021/04/27 08:59:21;;;;;;;;;;;;;;;18.81;16.06;101471.97;5020763;28;1961;-78
2021/04/27 09:01:47;;;;;;;;;;;;;;;19.22;16.39;101469.09;5017359;28;2744;-78
2021/04/27 09:04:14;;;;;;;;;;;;;;;19.31;16.41;101466.81;5017551;28;873;-77
2021/04/27 09:06:40;;;;;;;;;;;;;;;18.71;16.29;101461.47;5022918;28;1894;-78
2021/04/27 09:09:06;;;;;;;;;;;;;;;17.97;16.48;101472.22;5039034;28;1181;-78
2021/04/27 09:11:34;;;;;;;;;;;;;;;17.19;17.65;101460.69;5033359;28;1610;-78
2021/04/27 09:14:08;;;;;;;;;;;;;;;17.64;17.13;101456.19;5038326;28;1372;-79
2021/04/27 09:16:34;;;;;;;;;;;;;;;16.92;17.93;101460.63;5038588;28;1026;-80
2021/04/27 09:19:00;;;;;;;;;;;;;;;18.15;17.16;101447.28;5037001;28;1185;-78
2021/04/27 09:21:36;;;;;;;;;;;;;;;20.16;15.83;101436.84;5037959;28;912;-77
2021/04/27 09:24:14;;;;;;;;;;;;;;;20.34;14.98;101442.50;5037991;28;809;-78
2021/04/27 09:26:41;;;;;;;;;;;;;;;21.57;14.31;101441.34;5037736;28;1989;-78
2021/04/27 09:29:06;;;;;;;;;;;;;;;20.80;14.17;101441.00;5037254;28;1307;-79
2021/04/27 09:31:34;;;;;;;;;;;;;;;18.91;15.80;101394.91;5038153;28;813;-78
2021/04/27 09:34:17;;;;;;;;;;;;;;;19.31;15.17;101440.78;5038193;28;1066;-78
2021/04/27 09:36:43;;;;;;;;;;;;;;;19.57;15.11;101441.75;5036385;28;3104;-78
2021/04/27 09:39:08;;;;;;;;;;;;;;;18.40;16.11;101443.97;5019553;28;3335;-78
2021/04/27 09:41:34;;;;;;;;;;;;;;;17.71;17.05;101441.50;5034547;28;1024;-77
2021/04/27 09:43:59;;;;;;;;;;;;;;;19.49;15.13;101424.09;5039939;28;2462;-79
2021/04/27 09:46:24;;;;;;;;;;;;;;;21.91;13.34;101423.19;5039806;28;1894;-77
2021/04/27 09:48:55;;;;;;;;;;;;;;;21.13;14.09;101413.72;5042507;28;1184;-80
2021/04/27 09:51:29;;;;;;;;;;;;;;;20.94;14.06;101421.34;5047825;28;1728;-78
2021/04/27 09:54:00;;;;;;;;;;;;;;;21.77;14.21;101418.41;5057949;28;1911;-78
2021/04/27 09:56:33;;;;;;;;;;;;;;;22.24;12.98;101421.00;5049275;28;809;-80
2021/04/27 09:59:11;;;;;;;;;;;;;;;20.85;14.08;101401.31;5042371;28;2005;-79
2021/04/27 10:01:37;;;;;;;;;;;;;;;21.31;13.72;101408.06;5042060;28;1799;-79
2021/04/27 10:04:04;;;;;;;;;;;;;;;20.13;14.46;101415.22;5043849;28;1859;-80
2021/04/27 10:06:29;;;;;;;;;;;;;;;20.52;14.30;101408.91;5043302;28;1955;-79
2021/04/27 10:08:56;;;;;;;;;;;;;;;20.99;13.21;101409.72;5039740;28;1923;-78
2021/04/27 10:11:25;;;;;;;;;;;;;;;20.29;14.30;101387.59;5028553;28;1850;-78
2021/04/27 10:13:51;;;;;;;;;;;;;;;18.65;15.33;101402.25;5036331;28;809;-79
2021/04/27 10:16:17;;;;;;;;;;;;;;;19.60;14.73;101390.56;5040097;28;1030;-79
2021/04/27 10:18:43;;;;;;;;;;;;;;;19.35;14.88;101405.22;5038285;28;1185;-79
2021/04/27 10:21:12;;;;;;;;;;;;;;;19.05;15.01;101392.25;5029377;28;2881;-79
2021/04/27 10:23:40;;;;;;;;;;;;;;;20.94;13.83;101378.47;5036735;28;1699;-77
2021/04/27 10:26:06;;;;;;;;;;;;;;;20.96;13.92;101381.66;5036231;28;1959;-78
2021/04/27 10:29:04;;;;;;;;;;;;;;;21.79;13.01;101376.66;5036751;28;1295;-80
2021/04/27 10:31:33;;;;;;;;;;;;;;;23.27;11.84;101379.19;5036449;28;1067;-79
2021/04/27 10:34:10;;;;;;;;;;;;;;;22.21;12.70;101362.75;5035010;28;812;-78
2021/04/27 10:36:39;;;;;;;;;;;;;;;23.80;11.75;101366.47;5034910;28;1985;-79
2021/04/27 10:39:08;;;;;;;;;;;;;;;21.45;12.78;101360.28;5035165;28;1201;-79
2021/04/27 10:41:47;;;;;;;;;;;;;;;22.32;12.84;101355.06;5035874;28;1875;-78
2021/04/27 10:44:14;;;;;;;;;;;;;;;21.98;13.62;101356.47;5016645;28;851;-79
2021/04/27 10:46:40;;;;;;;;;;;;;;;22.54;12.58;101352.91;5015373;28;1969;-78
2021/04/27 10:49:24;;;;;;;;;;;;;;;23.63;12.39;101347.78;5016356;28;1178;-78
2021/04/27 10:51:51;;;;;;;;;;;;;;;24.56;11.77;101351.31;5030126;28;1860;-77
2021/04/27 10:54:17;;;;;;;;;;;;;;;24.02;11.70;101344.44;5036121;28;852;-77
2021/04/27 10:56:55;;;;;;;;;;;;;;;22.63;12.56;101341.16;5035909;28;1951;-77
2021/04/27 10:59:23;;;;;;;;;;;;;;;22.97;12.11;101337.63;5035749;28;1232;-79
2021/04/27 11:02:08;;;;;;;;;;;;;;;24.15;12.48;101324.91;5038887;28;839;-76
2021/04/27 11:04:43;;;;;;;;;;;;;;;24.15;11.71;101326.94;5035767;28;1828;-77
2021/04/27 11:07:30;;;;;;;;;;;;;;;22.13;12.90;101328.25;5033321;28;2097;-77
2021/04/27 11:09:59;;;;;;;;;;;;;;;24.30;11.40;101316.25;5036474;28;1304;-77
2021/04/27 11:12:37;;;;;;;;;;;;;;;25.27;10.72;101306.84;5035317;28;1935;-76
2021/04/27 11:15:08;;;;;;;;;;;;;;;22.73;12.04;101332.63;5037305;28;872;-78
2021/04/27 11:17:36;;;;;;;;;;;;;;;20.89;13.44;101319.94;5037111;28;2300;-77
2021/04/27 11:20:07;;;;;;;;;;;;;;;20.77;13.93;101318.34;5036692;28;1256;-77
2021/04/27 11:22:34;;;;;;;;;;;;;;;23.26;12.08;101318.44;5036147;28;865;-77
2021/04/27 11:25:06;;;;;;;;;;;;;;;25.68;10.58;101299.94;5035345;28;1898;-77
2021/04/27 11:27:35;;;;;;;;;;;;;;;26.83;10.23;101290.69;5035000;28;2024;-77
2021/04/27 11:30:07;;;;;;;;;;;;;;;25.32;10.35;101289.38;5036094;28;1248;-77
2021/04/27 11:32:34;;;;;;;;;;;;;;;21.98;13.07;101305.06;5035956;28;920;-77
2021/04/27 11:35:18;;;;;;;;;;;;;;;22.55;12.56;101298.22;5035915;28;995;-77
2021/04/27 11:37:49;;;;;;;;;;;;;;;22.61;12.75;101292.94;5034542;28;1868;-77
2021/04/27 11:40:20;;;;;;;;;;;;;;;21.89;13.30;101302.72;5036369;28;802;-78
2021/04/27 11:43:00;;;;;;;;;;;;;;;23.18;13.13;101297.22;5033232;28;3059;-77
2021/04/27 11:45:29;;;;;;;;;;;;;;;22.07;13.37;101299.78;5023091;28;3345;-77
2021/04/27 11:47:55;;;;;;;;;;;;;;;22.60;13.25;101292.16;5035111;28;1202;-77
2021/04/27 11:50:28;;;;;;;;;;;;;;;22.95;12.52;101292.22;5035325;28;785;-77
2021/04/27 11:53:09;;;;;;;;;;;;;;;23.51;11.78;101281.50;5035319;28;821;-77
2021/04/27 11:55:51;;;;;;;;;;;;;;;24.74;12.08;101271.94;5034767;28;1891;-78
2021/04/27 11:58:24;;;;;;;;;;;;;;;23.01;12.41;101293.34;5034927;28;2059;-78
2021/04/27 12:01:02;;;;;;;;;;;;;;;21.79;13.80;101289.53;5029694;28;2833;-78
2021/04/27 12:03:32;;;;;;;;;;;;;;;21.39;14.12;101263.63;5014906;28;836;-77
2021/04/27 12:06:16;;;;;;;;;;;;;;;24.35;13.73;101262.94;5021349;28;1902;-77
2021/04/27 12:08:52;;;;;;;;;;;;;;;23.42;12.99;101279.19;5033947;28;1189;-76
2021/04/27 12:11:32;;;;;;;;;;;;;;;23.60;12.38;101264.06;5035241;28;2042;-78
2021/04/27 12:14:00;;;;;;;;;;;;;;;23.97;12.10;101265.19;5035524;28;842;-77
2021/04/27 12:16:27;;;;;;;;;;;;;;;22.63;13.18;101268.81;5035355;28;2068;-76
2021/04/27 12:18:54;;;;;;;;;;;;;;;23.65;13.69;101264.41;5034425;28;1213;-77
2021/04/27 12:21:38;;;;;;;;;;;;;;;24.62;12.32;101258.47;5034939;28;860;-77
2021/04/27 12:24:04;;;;;;;;;;;;;;;23.00;13.06;101264.38;5035454;28;899;-76
2021/04/27 12:26:30;;;;;;;;;;;;;;;22.89;12.86;101249.63;5033722;28;1960;-77
2021/04/27 12:28:57;;;;;;;;;;;;;;;21.23;14.08;101256.47;5034711;28;2095;-77
2021/04/27 12:31:24;;;;;;;;;;;;;;;22.65;13.26;101248.66;5035408;28;841;-76
2021/04/27 12:34:01;;;;;;;;;;;;;;;20.89;14.87;101246.97;5033399;28;2040;-76
2021/04/27 12:36:35;;;;;;;;;;;;;;;22.99;13.63;101247.91;5034777;28;1255;-76
2021/04/27 12:39:07;;;;;;;;;;;;;;;22.97;13.06;101236.28;5034557;28;1214;-76
2021/04/27 12:41:40;;;;;;;;;;;;;;;23.78;12.77;101235.63;5035241;28;1289;-76
2021/04/27 12:44:34;;;;;;;;;;;;;;;21.82;14.03;101249.34;5035144;28;814;-77
2021/04/27 12:47:14;;;;;;;;;;;;;;;21.28;14.30;101232.75;5032390;28;1902;-75
2021/04/27 12:49:40;;;;;;;;;;;;;;;21.30;14.32;101232.34;5014693;28;1221;-76
2021/04/27 12:52:15;;;;;;;;;;;;;;;20.85;14.60;101222.50;5015355;28;820;-77
2021/04/27 12:54:42;;;;;;;;;;;;;;;20.82;14.84;101211.31;5016616;28;876;-75